createdAt,value
2019-06-08T00:00:18.431Z,14.83
2019-06-08T00:02:47.624Z,14.85
2019-06-08T00:05:18.818Z,14.95
2019-06-08T00:07:47.975Z,14.89
2019-06-08T00:10:21.104Z,14.85
2019-06-08T00:12:48.100Z,14.88
2019-06-08T00:15:18.646Z,14.81
2019-06-08T00:17:47.783Z,14.83
2019-06-08T00:20:17.694Z,14.77
2019-06-08T00:22:46.825Z,14.77
2019-06-08T00:25:16.001Z,14.63
2019-06-08T00:27:45.036Z,14.53
2019-06-08T00:30:14.181Z,14.55
2019-06-08T00:32:43.282Z,14.50
2019-06-08T00:35:12.403Z,14.41
2019-06-08T00:37:41.471Z,14.32
2019-06-08T00:40:10.558Z,14.45
2019-06-08T00:42:39.659Z,14.18
2019-06-08T00:45:08.782Z,14.28
2019-06-08T00:47:47.424Z,14.08
2019-06-08T00:50:08.727Z,14.10
2019-06-08T00:52:37.823Z,14.02
2019-06-08T00:55:06.988Z,13.97
2019-06-08T00:57:36.052Z,14.01
2019-06-08T01:00:10.639Z,13.98
2019-06-08T01:02:36.369Z,13.93
2019-06-08T01:05:05.769Z,13.85
2019-06-08T01:07:34.828Z,13.96
2019-06-08T01:10:04.062Z,13.97
2019-06-08T01:12:33.102Z,14.04
2019-06-08T01:15:02.539Z,13.98
2019-06-08T01:17:31.811Z,13.97
2019-06-08T01:20:01.465Z,14.03
2019-06-08T01:22:30.578Z,14.04
2019-06-08T01:24:59.633Z,13.98
2019-06-08T01:27:30.111Z,13.99
2019-06-08T01:29:59.160Z,14.02
2019-06-08T01:32:28.586Z,14.06
2019-06-08T01:34:57.643Z,14.09
2019-06-08T01:37:27.014Z,14.18
2019-06-08T01:39:56.195Z,14.10
2019-06-08T01:42:25.551Z,14.00
2019-06-08T01:44:54.646Z,13.96
2019-06-08T01:47:24.596Z,14.00
2019-06-08T01:49:53.660Z,13.99
2019-06-08T01:52:22.785Z,13.86
2019-06-08T01:54:51.843Z,13.83
2019-06-08T01:57:20.904Z,13.88
2019-06-08T01:59:49.989Z,13.69
2019-06-08T02:02:19.078Z,13.65
2019-06-08T02:04:48.125Z,13.64
2019-06-08T02:07:17.206Z,13.65
2019-06-08T02:09:46.230Z,13.58
2019-06-08T02:12:15.328Z,13.65
2019-06-08T02:14:44.358Z,13.48
2019-06-08T02:17:13.417Z,13.52
2019-06-08T02:19:42.492Z,13.60
2019-06-08T02:22:12.612Z,13.47
2019-06-08T02:24:41.732Z,13.57
2019-06-08T02:27:10.779Z,13.43
2019-06-08T02:29:39.968Z,13.39
2019-06-08T02:32:09.092Z,13.37
2019-06-08T02:34:38.519Z,13.30
2019-06-08T02:37:07.565Z,13.36
2019-06-08T02:39:38.426Z,13.26
2019-06-08T02:42:07.555Z,13.31
2019-06-08T02:44:36.726Z,13.21
2019-06-08T02:47:05.816Z,13.13
2019-06-08T02:49:35.396Z,13.18
2019-06-08T02:52:04.684Z,13.19
2019-06-08T02:54:35.380Z,13.18
2019-06-08T02:57:05.252Z,13.24
2019-06-08T02:59:38.583Z,13.28
2019-06-08T03:02:09.527Z,13.09
2019-06-08T03:04:41.114Z,13.25
2019-06-08T03:07:10.894Z,13.07
2019-06-08T03:09:41.003Z,12.99
2019-06-08T03:12:11.748Z,12.48
2019-06-08T03:14:42.079Z,12.88
2019-06-08T03:17:11.181Z,12.77
2019-06-08T03:19:41.782Z,12.79
2019-06-08T03:22:12.315Z,12.91
2019-06-08T03:24:42.163Z,12.82
2019-06-08T03:27:12.234Z,12.85
2019-06-08T03:29:42.150Z,12.75
2019-06-08T03:32:13.217Z,12.93
2019-06-08T03:35:28.737Z,12.73
2019-06-08T03:38:04.735Z,12.74
2019-06-08T03:40:51.624Z,12.82
2019-06-08T03:43:23.047Z,12.86
2019-06-08T03:45:54.979Z,12.81
2019-06-08T03:48:29.088Z,12.77
2019-06-08T03:50:58.944Z,12.71
2019-06-08T03:53:28.063Z,12.71
2019-06-08T03:55:57.153Z,12.70
2019-06-08T03:58:26.208Z,12.75
2019-06-08T04:00:55.299Z,12.68
2019-06-08T04:03:24.347Z,12.83
2019-06-08T04:05:53.374Z,12.83
2019-06-08T04:08:22.393Z,12.78
2019-06-08T04:10:51.449Z,12.93
2019-06-08T04:13:20.479Z,13.00
2019-06-08T04:15:50.272Z,12.96
2019-06-08T04:18:21.455Z,13.00
2019-06-08T04:20:51.559Z,13.14
2019-06-08T04:23:20.886Z,13.15
2019-06-08T04:25:50.620Z,13.06
2019-06-08T04:28:19.769Z,13.07
2019-06-08T04:30:49.841Z,13.15
2019-06-08T04:33:19.195Z,13.06
2019-06-08T04:35:48.249Z,13.31
2019-06-08T04:38:17.274Z,13.30
2019-06-08T04:40:48.033Z,13.15
2019-06-08T04:43:17.063Z,13.35
2019-06-08T04:45:48.074Z,13.63
2019-06-08T04:48:16.922Z,13.68
2019-06-08T04:50:48.020Z,13.48
2019-06-08T04:53:16.784Z,13.68
2019-06-08T04:55:47.101Z,13.44
2019-06-08T04:58:16.259Z,13.53
2019-06-08T05:00:46.312Z,13.42
2019-06-08T05:03:16.140Z,13.77
2019-06-08T05:05:45.398Z,13.95
2019-06-08T05:08:14.388Z,13.47
2019-06-08T05:10:45.163Z,13.81
2019-06-08T05:13:14.400Z,14.42
2019-06-08T05:15:43.568Z,14.34
2019-06-08T05:18:12.707Z,14.54
2019-06-08T05:20:44.033Z,14.97
2019-06-08T05:23:12.852Z,14.51
2019-06-08T05:25:43.122Z,14.58
2019-06-08T05:28:12.333Z,14.30
2019-06-08T05:30:41.447Z,14.34
2019-06-08T05:33:10.544Z,14.40
2019-06-08T05:35:39.556Z,13.97
2019-06-08T05:38:08.571Z,14.35
2019-06-08T05:40:37.873Z,14.18
2019-06-08T05:43:06.971Z,13.89
2019-06-08T05:45:36.053Z,14.16
2019-06-08T05:48:05.267Z,14.12
2019-06-08T05:50:34.848Z,14.40
2019-06-08T05:53:03.953Z,14.45
2019-06-08T05:55:33.122Z,14.18
2019-06-08T05:58:02.273Z,14.65
2019-06-08T06:00:31.523Z,15.04
2019-06-08T06:03:00.571Z,15.52
2019-06-08T06:05:29.640Z,14.43
2019-06-08T06:07:58.733Z,14.53
2019-06-08T06:10:27.823Z,14.84
2019-06-08T06:12:56.923Z,15.01
2019-06-08T06:15:25.980Z,14.98
2019-06-08T06:17:55.107Z,15.25
2019-06-08T06:20:24.193Z,15.59
2019-06-08T06:22:53.262Z,15.05
2019-06-08T06:25:22.402Z,15.05
2019-06-08T06:27:51.786Z,14.71
2019-06-08T06:30:20.860Z,15.01
2019-06-08T06:32:50.235Z,14.53
2019-06-08T06:35:19.263Z,15.05
2019-06-08T06:37:48.376Z,14.97
2019-06-08T06:40:17.423Z,14.87
2019-06-08T06:42:47.913Z,14.51
2019-06-08T06:45:17.058Z,15.01
2019-06-08T06:47:46.472Z,15.18
2019-06-08T06:50:15.553Z,15.44
2019-06-08T06:52:44.846Z,16.65
2019-06-08T06:55:13.811Z,16.48
2019-06-08T06:57:43.558Z,16.84
2019-06-08T07:00:12.593Z,17.00
2019-06-08T07:02:41.663Z,16.19
2019-06-08T07:05:10.698Z,16.00
2019-06-08T07:07:39.744Z,16.24
2019-06-08T07:10:09.322Z,17.79
2019-06-08T07:12:38.481Z,18.06
2019-06-08T07:15:07.570Z,17.75
2019-06-08T07:17:36.619Z,17.52
2019-06-08T07:20:06.641Z,17.53
2019-06-08T07:22:35.804Z,16.99
2019-06-08T07:25:05.112Z,16.43
2019-06-08T07:27:34.271Z,15.90
2019-06-08T07:30:03.526Z,15.84
2019-06-08T07:32:32.752Z,15.18
2019-06-08T07:35:01.804Z,15.42
2019-06-08T07:37:30.972Z,14.90
2019-06-08T07:40:00.313Z,14.71
2019-06-08T07:42:29.447Z,15.48
2019-06-08T07:45:00.244Z,15.55
2019-06-08T07:47:29.762Z,15.09
2019-06-08T07:49:59.576Z,16.33
2019-06-08T07:52:28.732Z,17.43
2019-06-08T07:54:58.567Z,18.11
2019-06-08T07:57:27.705Z,18.01
2019-06-08T07:59:56.835Z,17.80
2019-06-08T08:02:25.888Z,18.81
2019-06-08T08:04:56.603Z,18.47
2019-06-08T08:07:25.861Z,17.99
2019-06-08T08:09:54.989Z,19.31
2019-06-08T08:12:24.039Z,19.78
2019-06-08T08:14:53.407Z,18.25
2019-06-08T08:17:22.586Z,17.37
2019-06-08T08:19:53.018Z,16.69
2019-06-08T08:22:26.276Z,16.13
2019-06-08T08:24:55.406Z,16.16
2019-06-08T08:27:23.801Z,16.36
2019-06-08T08:29:53.261Z,16.30
2019-06-08T08:32:23.883Z,15.98
2019-06-08T08:34:53.817Z,15.87
2019-06-08T08:37:22.852Z,16.06
2019-06-08T08:39:51.970Z,16.41
2019-06-08T08:42:21.153Z,16.13
2019-06-08T08:44:51.560Z,15.66
2019-06-08T08:47:21.092Z,15.55
2019-06-08T08:49:51.120Z,15.50
2019-06-08T08:52:33.784Z,15.41
2019-06-08T08:54:54.193Z,15.16
2019-06-08T08:57:23.836Z,15.39
2019-06-08T08:59:56.027Z,15.97
2019-06-08T09:02:24.981Z,15.74
2019-06-08T09:04:55.225Z,15.78
2019-06-08T09:07:24.336Z,15.77
2019-06-08T09:09:53.593Z,15.94
2019-06-08T09:12:22.576Z,16.98
2019-06-08T09:14:54.244Z,16.43
2019-06-08T09:17:23.862Z,16.49
2019-06-08T09:19:53.993Z,16.36
2019-06-08T09:22:25.088Z,16.00
2019-06-08T09:24:54.984Z,16.08
2019-06-08T09:27:24.887Z,15.75
2019-06-08T09:29:54.983Z,16.28
2019-06-08T09:32:28.199Z,16.29
2019-06-08T09:35:02.334Z,15.99
2019-06-08T09:37:28.796Z,15.91
2019-06-08T09:39:58.915Z,16.28
2019-06-08T09:42:29.865Z,16.78
2019-06-08T09:45:01.981Z,16.93
2019-06-08T09:47:29.814Z,17.00
2019-06-08T09:50:02.486Z,16.50
2019-06-08T09:52:30.340Z,16.86
2019-06-08T09:55:02.839Z,17.22
2019-06-08T09:57:30.268Z,17.29
2019-06-08T10:00:02.399Z,17.25
2019-06-08T10:02:31.470Z,17.29
2019-06-08T10:05:02.377Z,17.24
2019-06-08T10:07:31.487Z,16.80
2019-06-08T10:10:02.721Z,17.30
2019-06-08T10:12:32.542Z,17.59
2019-06-08T10:15:02.837Z,17.05
2019-06-08T10:17:32.065Z,17.68
2019-06-08T10:20:03.399Z,17.98
2019-06-08T10:22:33.064Z,18.17
2019-06-08T10:25:05.362Z,17.86
2019-06-08T10:27:32.918Z,17.66
2019-06-08T10:30:04.307Z,17.65
2019-06-08T10:32:33.905Z,17.87
2019-06-08T10:35:05.357Z,17.95
2019-06-08T10:37:33.776Z,18.00
2019-06-08T10:40:05.445Z,17.92
2019-06-08T10:42:35.058Z,17.93
2019-06-08T10:45:08.130Z,17.62
2019-06-08T10:47:37.725Z,17.76
2019-06-08T10:50:12.749Z,17.74
2019-06-08T10:52:39.139Z,17.88
2019-06-08T10:55:10.427Z,17.63
2019-06-08T10:57:39.131Z,17.71
2019-06-08T11:00:19.561Z,18.24
2019-06-08T11:02:40.826Z,17.45
2019-06-08T11:05:13.615Z,17.73
2019-06-08T11:07:40.586Z,18.30
2019-06-08T11:10:12.132Z,19.08
2019-06-08T11:12:41.650Z,19.35
2019-06-08T11:15:11.871Z,18.58
2019-06-08T11:17:41.025Z,18.08
2019-06-08T11:20:11.830Z,17.91
2019-06-08T11:22:42.299Z,18.25
2019-06-08T11:25:15.990Z,17.58
2019-06-08T11:27:42.177Z,17.86
2019-06-08T11:30:20.102Z,17.52
2019-06-08T11:32:43.029Z,18.02
2019-06-08T11:35:12.632Z,18.49
2019-06-08T11:37:41.821Z,17.63
2019-06-08T11:40:12.582Z,17.58
2019-06-08T11:42:41.660Z,17.85
2019-06-08T11:45:12.559Z,18.21
2019-06-08T11:47:41.497Z,18.63
2019-06-08T11:50:13.073Z,19.10
2019-06-08T11:52:41.432Z,19.60
2019-06-08T11:55:12.903Z,19.67
2019-06-08T11:57:41.306Z,18.83
2019-06-08T12:00:24.269Z,19.02
2019-06-08T12:02:43.078Z,19.08
2019-06-08T12:05:14.164Z,18.58
2019-06-08T12:07:42.908Z,18.27
2019-06-08T12:10:12.970Z,18.49
2019-06-08T12:12:43.957Z,18.44
2019-06-08T12:15:13.760Z,19.72
2019-06-08T12:17:43.825Z,19.71
2019-06-08T12:20:17.064Z,20.30
2019-06-08T12:22:45.196Z,20.41
2019-06-08T12:25:14.267Z,19.30
2019-06-08T12:27:43.351Z,19.39
2019-06-08T12:30:19.483Z,19.08
2019-06-08T12:32:49.740Z,18.89
2019-06-08T12:35:18.770Z,18.55
2019-06-08T12:37:51.453Z,17.82
2019-06-08T12:40:20.934Z,18.97
2019-06-08T12:42:51.298Z,19.79
2019-06-08T12:45:20.525Z,20.09
2019-06-08T12:47:49.589Z,19.73
2019-06-08T12:50:19.961Z,19.99
2019-06-08T12:52:49.123Z,19.44
2019-06-08T12:55:23.193Z,19.57
2019-06-08T12:57:51.685Z,20.06
2019-06-08T13:00:21.510Z,19.81
2019-06-08T13:02:52.222Z,20.77
2019-06-08T13:05:22.995Z,20.53
2019-06-08T13:07:52.074Z,21.56
2019-06-08T13:10:24.041Z,22.25
2019-06-08T13:12:52.013Z,22.52
2019-06-08T13:15:22.022Z,21.85
2019-06-08T13:17:51.232Z,21.33
2019-06-08T13:20:22.512Z,21.14
2019-06-08T13:22:51.663Z,21.92
2019-06-08T13:25:35.766Z,20.75
2019-06-08T13:27:51.495Z,21.32
2019-06-08T13:30:25.881Z,20.81
2019-06-08T13:32:51.239Z,19.89
2019-06-08T13:35:22.335Z,20.49
2019-06-08T13:37:51.098Z,20.34
2019-06-08T13:40:23.473Z,20.20
2019-06-08T13:42:51.332Z,20.20
2019-06-08T13:45:22.113Z,20.31
2019-06-08T13:47:51.209Z,20.46
2019-06-08T13:50:22.138Z,19.63
2019-06-08T13:52:51.852Z,19.37
2019-06-08T13:55:42.588Z,20.62
2019-06-08T13:57:51.690Z,20.82
2019-06-08T14:00:32.158Z,20.26
2019-06-08T14:03:02.368Z,19.91
2019-06-08T14:05:31.574Z,20.13
2019-06-08T14:08:00.653Z,20.64
2019-06-08T14:10:35.426Z,20.86
2019-06-08T14:13:05.079Z,20.58
2019-06-08T14:15:34.095Z,20.41
2019-06-08T14:18:03.189Z,19.98
2019-06-08T14:20:34.286Z,19.80
2019-06-08T14:23:03.052Z,20.05
2019-06-08T14:25:46.936Z,20.59
2019-06-08T14:28:03.039Z,20.13
2019-06-08T14:30:33.258Z,20.24
2019-06-08T14:33:02.565Z,20.09
2019-06-08T14:35:31.697Z,19.91
2019-06-08T14:38:00.760Z,20.20
2019-06-08T14:40:32.675Z,20.58
2019-06-08T14:43:00.556Z,20.32
2019-06-08T14:45:31.026Z,19.66
2019-06-08T14:48:00.365Z,20.40
2019-06-08T14:50:31.180Z,21.05
2019-06-08T14:53:00.363Z,21.10
2019-06-08T14:55:33.684Z,20.67
2019-06-08T14:58:00.184Z,20.15
2019-06-08T15:00:29.748Z,20.30
2019-06-08T15:02:59.303Z,20.69
2019-06-08T15:05:31.849Z,20.25
2019-06-08T15:08:00.875Z,20.54
2019-06-08T15:10:31.345Z,20.44
2019-06-08T15:13:01.562Z,20.14
2019-06-08T15:15:32.176Z,19.93
2019-06-08T15:18:04.823Z,19.99
2019-06-08T15:20:32.814Z,20.06
2019-06-08T15:23:01.867Z,19.56
2019-06-08T15:25:32.757Z,19.66
2019-06-08T15:28:01.676Z,19.62
2019-06-08T15:30:31.508Z,19.77
2019-06-08T15:33:01.529Z,20.16
2019-06-08T15:35:31.390Z,19.88
2019-06-08T15:38:00.407Z,19.61
2019-06-08T15:40:29.875Z,19.91
2019-06-08T15:42:58.969Z,19.56
2019-06-08T15:45:30.897Z,19.85
2019-06-08T15:47:58.882Z,20.30
2019-06-08T15:50:28.399Z,20.20
2019-06-08T15:53:00.030Z,19.87
2019-06-08T15:55:31.217Z,19.52
2019-06-08T15:57:59.214Z,19.65
2019-06-08T16:00:31.261Z,19.83
2019-06-08T16:02:59.227Z,19.57
2019-06-08T16:05:29.550Z,19.74
2019-06-08T16:07:58.751Z,19.79
2019-06-08T16:10:28.113Z,20.11
2019-06-08T16:12:57.234Z,20.16
2019-06-08T16:15:26.845Z,20.23
2019-06-08T16:17:55.962Z,20.13
2019-06-08T16:20:25.403Z,20.15
2019-06-08T16:22:54.479Z,20.43
2019-06-08T16:25:23.572Z,20.36
2019-06-08T16:27:52.735Z,20.12
2019-06-08T16:30:21.906Z,20.37
2019-06-08T16:32:51.546Z,20.18
2019-06-08T16:35:20.571Z,20.03
2019-06-08T16:37:49.671Z,20.06
2019-06-08T16:40:18.725Z,20.14
2019-06-08T16:42:47.803Z,19.74
2019-06-08T16:45:17.097Z,19.79
2019-06-08T16:47:46.157Z,19.86
2019-06-08T16:50:24.171Z,19.84
2019-06-08T16:52:46.092Z,19.43
2019-06-08T16:55:15.138Z,19.61
2019-06-08T16:57:44.177Z,19.84
2019-06-08T17:02:44.099Z,19.88
2019-06-08T17:05:13.593Z,19.65
2019-06-08T17:07:42.659Z,19.50
2019-06-08T17:10:11.800Z,19.63
2019-06-08T17:12:40.863Z,19.75
2019-06-08T17:15:10.313Z,19.77
2019-06-08T17:17:40.526Z,19.75
2019-06-08T17:20:09.717Z,19.63
2019-06-08T17:22:39.208Z,19.79
2019-06-08T17:25:08.715Z,19.83
2019-06-08T17:27:38.944Z,19.54
2019-06-08T17:30:09.226Z,19.71
2019-06-08T17:32:39.276Z,19.36
2019-06-08T17:35:09.251Z,19.51
2019-06-08T17:37:38.294Z,19.55
2019-06-08T17:40:07.824Z,19.44
2019-06-08T17:42:37.622Z,19.35
2019-06-08T17:45:06.887Z,19.42
2019-06-08T17:47:36.399Z,19.25
2019-06-08T17:50:05.770Z,19.12
2019-06-08T17:52:34.935Z,19.42
2019-06-08T17:55:04.137Z,19.22
2019-06-08T17:57:47.333Z,19.20
2019-06-08T18:00:04.435Z,19.22
2019-06-08T18:02:33.566Z,19.46
2019-06-08T18:05:02.656Z,19.49
2019-06-08T18:07:31.910Z,19.50
2019-06-08T18:10:01.203Z,19.46
2019-06-08T18:12:30.457Z,19.21
2019-06-08T18:14:59.562Z,19.25
2019-06-08T18:17:28.655Z,19.29
2019-06-08T18:19:59.865Z,19.20
2019-06-08T18:22:29.030Z,19.24
2019-06-08T18:24:58.312Z,19.15
2019-06-08T18:27:27.825Z,19.11
2019-06-08T18:29:58.189Z,18.72
2019-06-08T18:32:27.310Z,18.48
2019-06-08T18:34:57.267Z,18.49
2019-06-08T18:37:28.460Z,18.32
2019-06-08T18:39:58.690Z,18.23
2019-06-08T18:42:27.814Z,18.20
2019-06-08T18:44:58.260Z,18.11
2019-06-08T18:47:27.511Z,17.97
2019-06-08T18:49:57.432Z,17.83
2019-06-08T18:52:28.216Z,17.76
2019-06-08T18:54:57.884Z,17.66
2019-06-08T18:57:27.814Z,17.60
2019-06-08T18:59:59.736Z,17.48
2019-06-08T19:02:28.801Z,17.33
2019-06-08T19:04:57.953Z,16.99
2019-06-08T19:07:28.351Z,16.99
2019-06-08T19:09:59.004Z,16.84
2019-06-08T19:12:28.138Z,16.84
2019-06-08T19:14:58.617Z,16.71
2019-06-08T19:17:28.469Z,16.42
2019-06-08T19:19:58.635Z,16.20
2019-06-08T19:22:30.198Z,16.28
2019-06-08T19:24:58.675Z,16.07
2019-06-08T19:27:27.854Z,15.97
2019-06-08T19:29:57.754Z,15.75
2019-06-08T19:32:28.015Z,15.59
2019-06-08T19:34:57.936Z,15.65
2019-06-08T19:37:28.715Z,15.51
2019-06-08T19:39:59.746Z,15.18
2019-06-08T19:42:39.479Z,15.00
2019-06-08T19:45:05.222Z,14.93
2019-06-08T19:47:30.697Z,14.91
2019-06-08T19:50:00.727Z,14.95
2019-06-08T19:52:29.917Z,14.84
2019-06-08T19:54:59.013Z,14.72
2019-06-08T19:57:28.399Z,14.65
2019-06-08T20:00:00.057Z,14.60
2019-06-08T20:02:28.624Z,14.41
2019-06-08T20:04:57.769Z,14.31
2019-06-08T20:07:27.999Z,14.18
2019-06-08T20:09:57.223Z,14.05
2019-06-08T20:12:28.147Z,13.94
2019-06-08T20:14:57.729Z,13.94
2019-06-08T20:17:28.347Z,13.95
2019-06-08T20:19:58.704Z,13.95
2019-06-08T20:22:27.828Z,13.87
2019-06-08T20:24:57.052Z,13.63
2019-06-08T20:27:27.673Z,13.60
2019-06-08T20:29:58.256Z,13.47
2019-06-08T20:32:28.184Z,13.38
2019-06-08T20:34:57.587Z,13.39
2019-06-08T20:37:28.221Z,13.38
2019-06-08T20:40:09.373Z,13.17
2019-06-08T20:42:29.470Z,13.17
2019-06-08T20:44:58.563Z,13.09
2019-06-08T20:47:27.785Z,13.06
2019-06-08T20:49:58.344Z,13.01
2019-06-08T20:52:28.331Z,13.01
2019-06-08T20:54:58.257Z,12.93
2019-06-08T20:57:27.458Z,12.98
2019-06-08T20:59:58.046Z,12.77
2019-06-08T21:02:28.477Z,12.79
2019-06-08T21:04:59.500Z,12.71
2019-06-08T21:07:28.757Z,12.68
2019-06-08T21:09:59.036Z,12.56
2019-06-08T21:12:28.424Z,12.53
2019-06-08T21:14:57.672Z,12.52
2019-06-08T21:17:27.576Z,12.55
2019-06-08T21:19:57.999Z,12.35
2019-06-08T21:22:27.853Z,12.27
2019-06-08T21:24:59.851Z,11.98
2019-06-08T21:27:27.969Z,11.92
2019-06-08T21:30:06.825Z,11.95
2019-06-08T21:32:29.087Z,11.94
2019-06-08T21:35:00.192Z,11.94
2019-06-08T21:37:29.024Z,11.79
2019-06-08T21:40:03.851Z,11.70
2019-06-08T21:42:30.304Z,11.62
2019-06-08T21:45:01.478Z,10.46
2019-06-08T21:47:30.200Z,11.40
2019-06-08T21:50:00.612Z,11.53
2019-06-08T21:52:29.692Z,11.56
2019-06-08T21:54:59.393Z,11.59
2019-06-08T21:57:29.690Z,11.73
2019-06-08T22:00:13.929Z,11.71
2019-06-08T22:02:29.664Z,11.67
2019-06-08T22:05:03.306Z,11.65
2019-06-08T22:07:33.730Z,11.64
2019-06-08T22:10:04.359Z,11.56
2019-06-08T22:12:36.661Z,11.31
2019-06-08T22:15:04.520Z,11.43
2019-06-08T22:17:33.691Z,11.36
2019-06-08T22:20:03.450Z,11.20
2019-06-08T22:22:32.659Z,11.09
2019-06-08T22:25:01.820Z,11.30
2019-06-08T22:27:30.925Z,11.40
2019-06-08T22:30:01.275Z,11.43
2019-06-08T22:32:30.850Z,11.49
2019-06-08T22:35:01.630Z,11.56
2019-06-08T22:37:30.892Z,11.29
2019-06-08T22:40:01.051Z,11.31
2019-06-08T22:42:30.950Z,11.33
2019-06-08T22:45:00.820Z,11.33
2019-06-08T22:47:30.873Z,11.27
2019-06-08T22:50:00.892Z,11.13
2019-06-08T22:52:30.857Z,11.12
2019-06-08T22:55:04.855Z,11.10
2019-06-08T22:57:30.797Z,11.07
2019-06-08T23:00:01.922Z,11.05
2019-06-08T23:02:30.626Z,11.00
2019-06-08T23:05:02.659Z,10.79
2019-06-08T23:07:32.787Z,10.55
2019-06-08T23:10:04.153Z,10.57
2019-06-08T23:12:33.506Z,10.66
2019-06-08T23:15:03.880Z,10.61
2019-06-08T23:17:33.489Z,10.37
2019-06-08T23:20:03.631Z,10.34
2019-06-08T23:22:32.675Z,10.27
2019-06-08T23:25:03.327Z,10.17
2019-06-08T23:27:32.561Z,10.41
2019-06-08T23:30:02.240Z,10.09
2019-06-08T23:32:32.509Z,10.11
2019-06-08T23:35:02.874Z,10.03
2019-06-08T23:37:31.974Z,9.83
2019-06-08T23:40:02.191Z,9.88
2019-06-08T23:42:31.802Z,9.95
2019-06-08T23:45:02.189Z,9.79
2019-06-08T23:47:31.430Z,9.82
2019-06-08T23:50:02.065Z,9.09
2019-06-08T23:52:31.308Z,10.23
2019-06-08T23:55:02.147Z,10.26
2019-06-08T23:57:31.175Z,10.19
